Time;durP1;ratioP1;P1;durP2;ratioP2;P2;SDS_P1;SDS_P2;PMS_P1;PMS_P2;Temp;Humidity;BMP_temperature;BMP_pressure;BME280_temperature;BME280_humidity;BME280_pressure;Samples;Min_cycle;Max_cycle;Signal;HPM_P1;HPM_P2
2020/12/25 00:02:14;;;;;;;;;;;;;;;20.35;39.85;100448.94;5099642;28;763;-45
2020/12/25 00:04:40;;;;;;;;;;;;;;;20.13;40.40;100446.88;5099609;28;1902;-46
2020/12/25 00:07:06;;;;;;;;;;;;;;;19.93;40.81;100448.09;5099228;28;938;-45
2020/12/25 00:09:31;;;;;;;;;;;;;;;19.54;41.75;100454.81;5099938;28;836;-46
2020/12/25 00:11:57;;;;;;;;;;;;;;;20.60;39.66;100446.78;5099708;28;831;-46
2020/12/25 00:14:22;;;;;;;;;;;;;;;21.08;38.39;100449.03;5099419;28;815;-48
2020/12/25 00:16:47;;;;;;;;;;;;;;;20.40;39.75;100446.09;5099343;28;795;-45
2020/12/25 00:19:13;;;;;;;;;;;;;;;20.25;40.13;100440.88;5099403;28;1015;-46
2020/12/25 00:21:38;;;;;;;;;;;;;;;19.78;41.18;100441.72;5099046;28;992;-46
2020/12/25 00:24:04;;;;;;;;;;;;;;;19.24;42.42;100444.00;5099129;28;728;-47
2020/12/25 00:26:30;;;;;;;;;;;;;;;19.92;41.28;100441.78;5099286;28;1979;-49
2020/12/25 00:28:56;;;;;;;;;;;;;;;20.86;38.85;100436.03;5099313;28;823;-48
2020/12/25 00:31:24;;;;;;;;;;;;;;;20.28;40.13;100434.72;5097590;28;866;-48
2020/12/25 00:33:50;;;;;;;;;;;;;;;20.08;40.54;100435.97;5099213;28;803;-45
2020/12/25 00:36:28;;;;;;;;;;;;;;;19.74;41.20;100443.44;5098644;28;957;-46
2020/12/25 00:38:54;;;;;;;;;;;;;;;19.24;42.60;100441.22;5098862;28;802;-46
2020/12/25 00:41:19;;;;;;;;;;;;;;;20.25;40.10;100438.91;5099079;28;811;-48
2020/12/25 00:43:44;;;;;;;;;;;;;;;20.80;39.18;100442.78;5101930;28;1200;-46
2020/12/25 00:46:11;;;;;;;;;;;;;;;20.21;40.35;100443.41;5119279;28;1981;-47
2020/12/25 00:48:36;;;;;;;;;;;;;;;19.99;40.64;100444.09;5119298;28;803;-46
2020/12/25 00:51:01;;;;;;;;;;;;;;;19.27;42.32;100437.06;5108611;28;999;-45
2020/12/25 00:53:27;;;;;;;;;;;;;;;19.44;42.06;100440.06;5098645;28;866;-44
2020/12/25 00:55:53;;;;;;;;;;;;;;;20.58;39.77;100437.97;5098856;28;810;-48
2020/12/25 00:58:18;;;;;;;;;;;;;;;20.45;39.81;100432.16;5098594;28;779;-47
2020/12/25 01:00:44;;;;;;;;;;;;;;;20.14;40.56;100432.78;5097486;28;1153;-45
2020/12/25 01:03:10;;;;;;;;;;;;;;;20.04;40.49;100434.94;5098646;28;760;-49
2020/12/25 01:05:35;;;;;;;;;;;;;;;19.34;42.26;100434.75;5097951;28;1922;-46
2020/12/25 01:08:01;;;;;;;;;;;;;;;19.72;41.44;100442.09;5099062;28;791;-47
2020/12/25 01:10:26;;;;;;;;;;;;;;;20.64;39.50;100440.31;5098463;28;886;-44
2020/12/25 01:12:51;;;;;;;;;;;;;;;20.27;40.11;100447.72;5098164;28;743;-47
2020/12/25 01:15:17;;;;;;;;;;;;;;;20.00;40.65;100435.53;5098472;28;790;-44
2020/12/25 01:17:42;;;;;;;;;;;;;;;19.54;41.58;100449.31;5098778;28;755;-44
2020/12/25 01:20:08;;;;;;;;;;;;;;;19.41;42.23;100443.44;5097677;28;1063;-49
2020/12/25 01:22:33;;;;;;;;;;;;;;;20.51;39.79;100438.41;5098211;28;827;-47
2020/12/25 01:24:58;;;;;;;;;;;;;;;20.51;39.50;100430.94;5098164;28;1913;-46
2020/12/25 01:27:24;;;;;;;;;;;;;;;20.26;40.07;100432.28;5097903;28;819;-44
2020/12/25 01:29:49;;;;;;;;;;;;;;;19.97;40.87;100436.13;5098166;28;732;-48
2020/12/25 01:32:15;;;;;;;;;;;;;;;19.62;41.52;100437.59;5097933;28;830;-45
2020/12/25 01:34:40;;;;;;;;;;;;;;;20.17;40.41;100426.66;5097699;28;760;-47
2020/12/25 01:37:06;;;;;;;;;;;;;;;20.75;38.95;100418.84;5097815;28;930;-47
2020/12/25 01:39:31;;;;;;;;;;;;;;;20.24;40.20;100417.16;5097954;28;835;-48
2020/12/25 01:41:56;;;;;;;;;;;;;;;20.08;40.42;100422.97;5097302;28;819;-44
2020/12/25 01:44:22;;;;;;;;;;;;;;;19.46;41.82;100424.06;5105932;28;1914;-46
2020/12/25 01:46:47;;;;;;;;;;;;;;;19.38;42.04;100416.47;5118681;28;756;-47
2020/12/25 01:49:13;;;;;;;;;;;;;;;19.99;41.03;100422.88;5118263;28;743;-47
2020/12/25 01:51:38;;;;;;;;;;;;;;;20.71;39.18;100422.56;5101280;28;993;-46
2020/12/25 01:54:03;;;;;;;;;;;;;;;20.08;40.50;100422.16;5096461;28;843;-47
2020/12/25 01:56:29;;;;;;;;;;;;;;;20.25;40.30;100425.13;5096277;28;779;-45
2020/12/25 01:58:54;;;;;;;;;;;;;;;19.61;41.47;100424.91;5096323;28;771;-47
2020/12/25 02:01:20;;;;;;;;;;;;;;;19.42;42.07;100433.22;5097556;28;780;-45
2020/12/25 02:03:45;;;;;;;;;;;;;;;20.52;39.54;100424.28;5095894;28;867;-45
2020/12/25 02:06:11;;;;;;;;;;;;;;;20.57;39.28;100426.13;5097028;28;1964;-48
2020/12/25 02:08:36;;;;;;;;;;;;;;;20.15;40.34;100426.13;5096156;28;858;-46
2020/12/25 02:11:01;;;;;;;;;;;;;;;19.90;40.69;100419.16;5097188;28;744;-45
2020/12/25 02:13:29;;;;;;;;;;;;;;;19.39;42.19;100426.38;5097217;28;744;-45
2020/12/25 02:15:54;;;;;;;;;;;;;;;19.56;41.79;100423.06;5096132;28;783;-46
2020/12/25 02:18:19;;;;;;;;;;;;;;;20.63;39.38;100416.56;5096974;28;816;-47
2020/12/25 02:20:45;;;;;;;;;;;;;;;20.24;40.10;100417.16;5096560;28;1043;-45
2020/12/25 02:23:10;;;;;;;;;;;;;;;20.03;40.88;100413.97;5095847;28;780;-47
2020/12/25 02:25:36;;;;;;;;;;;;;;;19.71;41.26;100416.44;5097300;28;1914;-45
2020/12/25 02:28:01;;;;;;;;;;;;;;;19.29;42.21;100412.75;5096984;28;803;-47
2020/12/25 02:30:26;;;;;;;;;;;;;;;20.17;40.47;100421.16;5096848;28;855;-45
2020/12/25 02:32:52;;;;;;;;;;;;;;;20.84;38.89;100411.44;5096884;28;886;-46
2020/12/25 02:35:17;;;;;;;;;;;;;;;20.29;40.03;100401.28;5096435;28;949;-48
2020/12/25 02:37:43;;;;;;;;;;;;;;;20.12;40.60;100407.44;5096859;28;827;-46
2020/12/25 02:40:08;;;;;;;;;;;;;;;19.46;41.97;100402.00;5096857;28;867;-46
2020/12/25 02:42:35;;;;;;;;;;;;;;;19.25;42.74;100406.19;5096669;28;787;-50
2020/12/25 02:45:00;;;;;;;;;;;;;;;20.38;39.93;100400.56;5110220;28;1967;-48
2020/12/25 02:47:26;;;;;;;;;;;;;;;20.43;39.74;100400.47;5117454;28;794;-45
2020/12/25 02:49:51;;;;;;;;;;;;;;;20.18;40.58;100408.97;5116569;28;1076;-46
2020/12/25 02:52:17;;;;;;;;;;;;;;;19.73;41.26;100410.66;5096664;28;926;-46
2020/12/25 02:54:42;;;;;;;;;;;;;;;19.20;42.42;100411.81;5096076;28;755;-46
2020/12/25 02:57:07;;;;;;;;;;;;;;;20.36;39.98;100409.16;5096513;28;736;-46
2020/12/25 02:59:33;;;;;;;;;;;;;;;21.07;38.41;100407.88;5096748;28;787;-47
2020/12/25 03:01:58;;;;;;;;;;;;;;;21.45;37.46;100424.13;5096591;28;807;-46
2020/12/25 03:04:24;;;;;;;;;;;;;;;20.74;39.16;100421.94;5096640;28;1914;-47
2020/12/25 03:06:49;;;;;;;;;;;;;;;20.47;39.56;100418.06;5096259;28;949;-45
2020/12/25 03:09:14;;;;;;;;;;;;;;;19.76;41.15;100419.13;5096539;28;832;-46
2020/12/25 03:11:40;;;;;;;;;;;;;;;19.27;42.37;100426.03;5096432;28;751;-47
2020/12/25 03:14:05;;;;;;;;;;;;;;;19.89;41.26;100423.03;5096249;28;858;-45
2020/12/25 03:16:31;;;;;;;;;;;;;;;20.84;39.11;100421.69;5096397;28;747;-45
2020/12/25 03:18:56;;;;;;;;;;;;;;;20.64;39.48;100420.19;5096278;28;1067;-45
2020/12/25 03:21:22;;;;;;;;;;;;;;;20.30;39.97;100418.66;5095900;28;1163;-51
2020/12/25 03:23:47;;;;;;;;;;;;;;;19.75;41.19;100420.22;5096411;28;783;-45
2020/12/25 03:26:14;;;;;;;;;;;;;;;19.39;42.10;100434.66;5096152;28;1977;-48
2020/12/25 03:28:39;;;;;;;;;;;;;;;20.08;40.79;100420.22;5096165;28;846;-46
2020/12/25 03:31:04;;;;;;;;;;;;;;;20.75;39.17;100421.63;5096343;28;815;-44
2020/12/25 03:33:30;;;;;;;;;;;;;;;20.26;40.10;100428.69;5096170;28;827;-47
2020/12/25 03:35:55;;;;;;;;;;;;;;;19.85;40.91;100416.50;5095723;28;961;-44
2020/12/25 03:38:21;;;;;;;;;;;;;;;19.48;42.01;100416.28;5096269;28;807;-44
2020/12/25 03:40:46;;;;;;;;;;;;;;;19.22;42.68;100412.31;5096049;28;775;-46
2020/12/25 03:43:11;;;;;;;;;;;;;;;20.33;40.28;100409.78;5096077;28;994;-45
2020/12/25 03:45:37;;;;;;;;;;;;;;;20.60;39.60;100408.13;5115005;28;1909;-46
2020/12/25 03:48:02;;;;;;;;;;;;;;;20.18;40.29;100411.72;5116254;28;1007;-46
2020/12/25 03:50:28;;;;;;;;;;;;;;;20.03;40.62;100409.25;5110630;28;929;-46
2020/12/25 03:52:53;;;;;;;;;;;;;;;19.51;41.70;100423.16;5096118;28;838;-48
2020/12/25 03:55:18;;;;;;;;;;;;;;;20.01;40.72;100417.03;5096047;28;759;-47
2020/12/25 03:57:44;;;;;;;;;;;;;;;20.80;39.16;100413.22;5096008;28;747;-47
2020/12/25 04:00:09;;;;;;;;;;;;;;;20.20;40.09;100416.94;5096399;28;748;-46
2020/12/25 04:02:35;;;;;;;;;;;;;;;20.09;40.42;100423.78;5096357;28;886;-46
2020/12/25 04:05:00;;;;;;;;;;;;;;;19.37;41.87;100419.53;5097556;28;1971;-45
2020/12/25 04:07:26;;;;;;;;;;;;;;;19.76;41.39;100421.06;5099767;28;747;-50
2020/12/25 04:09:51;;;;;;;;;;;;;;;20.76;39.27;100417.72;5099564;28;780;-50
2020/12/25 04:12:16;;;;;;;;;;;;;;;20.41;40.03;100414.59;5099630;28;764;-48
2020/12/25 04:14:42;;;;;;;;;;;;;;;20.21;40.17;100398.44;5099559;28;824;-47
2020/12/25 04:17:07;;;;;;;;;;;;;;;19.70;41.26;100409.31;5099337;28;878;-47
2020/12/25 04:19:33;;;;;;;;;;;;;;;19.31;42.16;100418.81;5099576;28;1189;-55
2020/12/25 04:21:59;;;;;;;;;;;;;;;19.51;41.99;100412.13;5099119;28;1032;-53
2020/12/25 04:24:24;;;;;;;;;;;;;;;20.54;39.53;100418.44;5099074;28;1971;-48
2020/12/25 04:26:50;;;;;;;;;;;;;;;20.29;40.04;100422.56;5099302;28;800;-49
2020/12/25 04:29:15;;;;;;;;;;;;;;;19.97;40.97;100427.06;5099425;28;770;-46
2020/12/25 04:31:41;;;;;;;;;;;;;;;19.88;41.04;100420.59;5099420;28;866;-47
2020/12/25 04:34:06;;;;;;;;;;;;;;;19.17;42.58;100426.19;5099329;28;853;-46
2020/12/25 04:36:32;;;;;;;;;;;;;;;20.39;40.05;100432.59;5098972;28;953;-47
2020/12/25 04:38:57;;;;;;;;;;;;;;;20.65;39.34;100424.56;5098915;28;806;-46
2020/12/25 04:41:23;;;;;;;;;;;;;;;20.20;40.35;100416.13;5097898;28;834;-51
2020/12/25 04:43:48;;;;;;;;;;;;;;;19.91;41.01;100417.22;5102740;28;1137;-48
2020/12/25 04:46:13;;;;;;;;;;;;;;;19.46;41.77;100417.72;5118015;28;1913;-51
2020/12/25 04:48:39;;;;;;;;;;;;;;;20.38;40.10;100411.63;5118343;28;752;-49
2020/12/25 04:51:05;;;;;;;;;;;;;;;20.71;39.24;100405.97;5108486;28;992;-47
2020/12/25 04:53:30;;;;;;;;;;;;;;;20.11;40.33;100405.78;5098873;28;917;-46
2020/12/25 04:55:56;;;;;;;;;;;;;;;19.92;40.73;100413.34;5098853;28;807;-49
2020/12/25 04:58:21;;;;;;;;;;;;;;;19.60;41.35;100415.00;5098754;28;790;-46
2020/12/25 05:01:08;;;;;;;;;;;;;;;19.74;41.30;100418.63;5099075;28;779;-46
2020/12/25 05:03:37;;;;;;;;;;;;;;;20.91;38.81;100416.53;5098700;28;763;-46
2020/12/25 05:06:03;;;;;;;;;;;;;;;20.08;40.45;100411.94;5098116;28;1914;-45
2020/12/25 05:08:34;;;;;;;;;;;;;;;20.05;40.48;100409.78;5098584;28;887;-47
2020/12/25 05:11:00;;;;;;;;;;;;;;;19.35;42.07;100413.50;5098836;28;820;-46
2020/12/25 05:13:25;;;;;;;;;;;;;;;19.84;41.21;100401.09;5098833;28;782;-46
2020/12/25 05:15:50;;;;;;;;;;;;;;;20.75;39.13;100407.81;5097693;28;799;-44
2020/12/25 05:18:16;;;;;;;;;;;;;;;20.41;39.71;100402.72;5097091;28;1453;-46
2020/12/25 05:20:41;;;;;;;;;;;;;;;20.20;40.06;100391.28;5097116;28;1039;-46
2020/12/25 05:23:08;;;;;;;;;;;;;;;19.63;41.22;100404.19;5098301;28;811;-44
2020/12/25 05:25:34;;;;;;;;;;;;;;;19.69;41.55;100404.09;5098192;28;1951;-45
2020/12/25 05:28:03;;;;;;;;;;;;;;;20.63;39.20;100410.25;5098544;28;775;-46
2020/12/25 05:30:29;;;;;;;;;;;;;;;20.28;40.10;100401.59;5096897;28;1242;-47
2020/12/25 05:32:54;;;;;;;;;;;;;;;20.31;39.98;100407.34;5098360;28;791;-45
2020/12/25 05:35:19;;;;;;;;;;;;;;;19.78;40.91;100408.63;5096461;28;859;-47
2020/12/25 05:37:45;;;;;;;;;;;;;;;19.52;41.59;100412.91;5097061;28;819;-47
2020/12/25 05:40:10;;;;;;;;;;;;;;;19.42;41.84;100416.66;5098242;28;795;-46
2020/12/25 05:42:45;;;;;;;;;;;;;;;19.38;41.90;100419.22;5097845;28;546;-47
2020/12/25 05:45:11;;;;;;;;;;;;;;;19.53;41.61;100411.81;5113075;28;1909;-46
2020/12/25 05:47:37;;;;;;;;;;;;;;;19.29;41.96;100410.00;5118486;28;815;-46
2020/12/25 05:50:02;;;;;;;;;;;;;;;19.66;41.34;100411.03;5116205;28;964;-46
2020/12/25 05:52:28;;;;;;;;;;;;;;;20.62;39.29;100406.69;5097807;28;822;-46
2020/12/25 05:54:53;;;;;;;;;;;;;;;20.52;39.37;100416.00;5097652;28;501;-45
2020/12/25 05:57:20;;;;;;;;;;;;;;;20.03;40.56;100414.78;5096291;28;771;-46
2020/12/25 05:59:46;;;;;;;;;;;;;;;19.85;40.71;100412.94;5097752;28;720;-47
2020/12/25 06:02:12;;;;;;;;;;;;;;;19.40;41.56;100416.16;5097480;28;814;-45
2020/12/25 06:04:37;;;;;;;;;;;;;;;19.31;42.14;100410.53;5097324;28;1973;-45
2020/12/25 06:07:02;;;;;;;;;;;;;;;20.47;39.50;100407.81;5097202;28;926;-48
2020/12/25 06:09:29;;;;;;;;;;;;;;;20.45;39.62;100414.78;5096138;28;747;-48
2020/12/25 06:11:54;;;;;;;;;;;;;;;20.18;40.10;100411.72;5097324;28;764;-47
2020/12/25 06:14:19;;;;;;;;;;;;;;;19.87;40.87;100410.69;5097447;28;780;-46
2020/12/25 06:16:57;;;;;;;;;;;;;;;19.25;41.99;100419.97;5097252;28;787;-48
2020/12/25 06:19:25;;;;;;;;;;;;;;;20.09;40.32;100429.28;5097269;28;1063;-48
2020/12/25 06:21:53;;;;;;;;;;;;;;;20.71;39.04;100423.38;5095890;28;1181;-47
2020/12/25 06:24:18;;;;;;;;;;;;;;;20.07;40.22;100423.28;5097130;28;827;-47
2020/12/25 06:26:44;;;;;;;;;;;;;;;20.06;40.16;100430.72;5096996;28;1905;-48
2020/12/25 06:29:16;;;;;;;;;;;;;;;19.42;41.89;100436.81;5097175;28;743;-46
2020/12/25 06:31:44;;;;;;;;;;;;;;;19.93;40.67;100437.06;5097420;28;797;-49
2020/12/25 06:34:10;;;;;;;;;;;;;;;20.81;38.94;100436.13;5095805;28;795;-46
2020/12/25 06:36:36;;;;;;;;;;;;;;;20.33;39.60;100440.97;5097307;28;921;-46
2020/12/25 06:39:05;;;;;;;;;;;;;;;20.14;40.05;100449.34;5096818;28;783;-49
2020/12/25 06:41:32;;;;;;;;;;;;;;;19.60;41.30;100459.94;5096869;28;759;-46
2020/12/25 06:43:58;;;;;;;;;;;;;;;19.34;41.77;100459.53;5100539;28;1126;-45
2020/12/25 06:46:27;;;;;;;;;;;;;;;19.49;41.83;100467.56;5115727;28;1986;-47
2020/12/25 06:48:53;;;;;;;;;;;;;;;20.64;39.33;100462.41;5117354;28;1002;-46
2020/12/25 06:51:20;;;;;;;;;;;;;;;20.55;39.24;100463.47;5104717;28;972;-46
2020/12/25 06:53:46;;;;;;;;;;;;;;;20.24;39.99;100453.03;5096486;28;787;-47
2020/12/25 06:56:18;;;;;;;;;;;;;;;19.97;40.29;100460.97;5096816;28;739;-46
2020/12/25 06:58:46;;;;;;;;;;;;;;;19.46;41.67;100461.81;5096806;28;799;-48
2020/12/25 07:01:13;;;;;;;;;;;;;;;19.93;40.92;100456.38;5096356;28;751;-47
2020/12/25 07:03:38;;;;;;;;;;;;;;;20.76;38.71;100453.66;5096668;28;811;-46
2020/12/25 07:06:04;;;;;;;;;;;;;;;20.30;39.57;100451.78;5096187;28;1984;-45
2020/12/25 07:08:31;;;;;;;;;;;;;;;20.24;40.05;100447.50;5096532;28;755;-46
2020/12/25 07:11:14;;;;;;;;;;;;;;;19.64;41.23;100449.97;5096630;28;847;-46
2020/12/25 07:13:40;;;;;;;;;;;;;;;20.00;40.57;100448.50;5095546;28;787;-49
2020/12/25 07:16:06;;;;;;;;;;;;;;;20.78;38.96;100448.63;5096405;28;791;-51
2020/12/25 07:18:31;;;;;;;;;;;;;;;20.24;39.81;100453.03;5096824;28;766;-46
2020/12/25 07:21:08;;;;;;;;;;;;;;;20.21;40.09;100450.88;5095731;28;1165;-47
2020/12/25 07:23:40;;;;;;;;;;;;;;;19.59;41.20;100449.22;5096315;28;830;-47
2020/12/25 07:26:06;;;;;;;;;;;;;;;19.98;40.67;100445.25;5096418;28;1906;-46
2020/12/25 07:28:31;;;;;;;;;;;;;;;20.65;39.27;100446.66;5096240;28;760;-47
2020/12/25 07:30:57;;;;;;;;;;;;;;;20.24;39.92;100447.50;5096393;28;747;-47
2020/12/25 07:33:23;;;;;;;;;;;;;;;20.15;40.25;100439.94;5096323;28;775;-48
2020/12/25 07:35:48;;;;;;;;;;;;;;;19.31;41.94;100435.34;5095931;28;941;-49
2020/12/25 07:38:14;;;;;;;;;;;;;;;20.00;40.52;100437.47;5096273;28;756;-51
2020/12/25 07:40:43;;;;;;;;;;;;;;;20.74;38.83;100444.84;5099185;28;760;-46
2020/12/25 07:43:11;;;;;;;;;;;;;;;20.26;39.88;100445.25;5100201;28;819;-46
2020/12/25 07:45:37;;;;;;;;;;;;;;;19.94;40.71;100442.28;5118928;28;1976;-47
2020/12/25 07:48:03;;;;;;;;;;;;;;;19.29;41.84;100445.84;5120486;28;834;-47
2020/12/25 07:50:32;;;;;;;;;;;;;;;19.91;40.78;100440.13;5114129;28;1001;-47
2020/12/25 07:52:57;;;;;;;;;;;;;;;20.91;38.56;100446.94;5100330;28;786;-48
2020/12/25 07:55:27;;;;;;;;;;;;;;;20.29;39.76;100445.47;5099037;28;751;-48
2020/12/25 07:57:52;;;;;;;;;;;;;;;20.34;39.53;100447.28;5100122;28;791;-47
2020/12/25 08:00:18;;;;;;;;;;;;;;;19.31;41.87;100449.13;5099920;28;771;-46
2020/12/25 08:02:43;;;;;;;;;;;;;;;19.66;41.27;100449.66;5099739;28;731;-49
2020/12/25 08:05:09;;;;;;;;;;;;;;;20.65;39.11;100441.13;5099768;28;1913;-47
2020/12/25 08:07:39;;;;;;;;;;;;;;;20.28;40.04;100443.00;5099766;28;775;-46
2020/12/25 08:10:04;;;;;;;;;;;;;;;20.28;39.73;100437.50;5098734;28;825;-47
2020/12/25 08:12:29;;;;;;;;;;;;;;;19.41;41.82;100448.16;5098672;28;771;-46
2020/12/25 08:14:55;;;;;;;;;;;;;;;19.65;41.54;100448.00;5098749;28;739;-47
2020/12/25 08:17:20;;;;;;;;;;;;;;;20.63;39.19;100443.41;5098576;28;1342;-50
2020/12/25 08:19:46;;;;;;;;;;;;;;;20.45;39.27;100445.97;5098375;28;1648;-49
2020/12/25 08:22:11;;;;;;;;;;;;;;;20.19;39.89;100445.69;5098979;28;993;-47
2020/12/25 08:24:37;;;;;;;;;;;;;;;19.66;41.04;100446.91;5099429;28;1972;-48
2020/12/25 08:27:03;;;;;;;;;;;;;;;19.66;41.58;100441.38;5099552;28;771;-47
2020/12/25 08:29:30;;;;;;;;;;;;;;;20.66;39.08;100431.72;5099391;28;803;-52
2020/12/25 08:32:03;;;;;;;;;;;;;;;20.70;38.80;100437.50;5099469;28;771;-50
2020/12/25 08:34:29;;;;;;;;;;;;;;;20.33;39.63;100451.22;5099372;28;827;-45
2020/12/25 08:36:58;;;;;;;;;;;;;;;19.80;40.95;100436.72;5098972;28;953;-47
2020/12/25 08:39:30;;;;;;;;;;;;;;;19.28;42.30;100439.50;5099524;28;820;-49
2020/12/25 08:41:55;;;;;;;;;;;;;;;20.23;40.05;100429.31;5099605;28;803;-52
2020/12/25 08:44:21;;;;;;;;;;;;;;;20.73;38.82;100434.09;5106904;28;1204;-48
2020/12/25 08:46:46;;;;;;;;;;;;;;;20.16;40.02;100425.03;5119543;28;1978;-47
2020/12/25 08:49:12;;;;;;;;;;;;;;;19.88;40.64;100426.09;5120014;28;717;-50
2020/12/25 08:51:38;;;;;;;;;;;;;;;19.53;41.40;100433.88;5102278;28;940;-48
2020/12/25 08:54:03;;;;;;;;;;;;;;;20.17;40.07;100421.16;5099138;28;776;-46
2020/12/25 08:56:28;;;;;;;;;;;;;;;20.99;38.45;100413.03;5098912;28;804;-48
2020/12/25 08:58:54;;;;;;;;;;;;;;;20.41;39.66;100414.59;5098673;28;848;-46
2020/12/25 09:01:20;;;;;;;;;;;;;;;20.13;40.03;100409.06;5098876;28;846;-52
2020/12/25 09:03:46;;;;;;;;;;;;;;;19.37;41.86;100409.31;5098696;28;791;-53
2020/12/25 09:06:11;;;;;;;;;;;;;;;20.15;40.29;100406.81;5097617;28;1933;-50
2020/12/25 09:08:37;;;;;;;;;;;;;;;21.03;38.22;100402.19;5096398;28;931;-51
2020/12/25 09:11:08;;;;;;;;;;;;;;;20.37;39.52;100393.41;5097633;28;1586;-48
2020/12/25 09:13:34;;;;;;;;;;;;;;;20.34;39.70;100386.53;5098489;28;875;-49
2020/12/25 09:15:59;;;;;;;;;;;;;;;19.19;42.35;100390.88;5098480;28;783;-54
2020/12/25 09:18:25;;;;;;;;;;;;;;;19.91;41.08;100390.47;5098268;28;804;-54
2020/12/25 09:20:50;;;;;;;;;;;;;;;20.99;38.54;100385.41;5098164;28;1022;-55
2020/12/25 09:23:15;;;;;;;;;;;;;;;20.27;40.03;100369.59;5098451;28;812;-50
2020/12/25 09:25:41;;;;;;;;;;;;;;;20.11;40.12;100360.81;5098102;28;1913;-50
2020/12/25 09:28:06;;;;;;;;;;;;;;;19.17;42.33;100362.78;5098240;28;779;-55
2020/12/25 09:30:32;;;;;;;;;;;;;;;19.92;40.87;100352.63;5098182;28;491;-57
2020/12/25 09:32:57;;;;;;;;;;;;;;;20.85;38.92;100357.81;5097882;28;740;-53
2020/12/25 09:35:22;;;;;;;;;;;;;;;21.44;37.50;100359.69;5098012;28;981;-55
2020/12/25 09:37:48;;;;;;;;;;;;;;;20.72;38.89;100353.16;5098217;28;767;-50
2020/12/25 09:40:13;;;;;;;;;;;;;;;20.34;39.94;100365.28;5097357;28;823;-46
2020/12/25 09:42:39;;;;;;;;;;;;;;;19.66;41.10;100356.69;5098257;28;763;-57
2020/12/25 09:45:04;;;;;;;;;;;;;;;19.51;41.63;100364.44;5111969;28;1957;-54
2020/12/25 09:47:30;;;;;;;;;;;;;;;19.64;41.39;100352.59;5118071;28;799;-49
2020/12/25 09:49:55;;;;;;;;;;;;;;;19.56;41.71;100351.38;5116797;28;982;-53
2020/12/25 09:52:20;;;;;;;;;;;;;;;19.66;41.31;100342.09;5111036;28;843;-48
2020/12/25 09:54:46;;;;;;;;;;;;;;;19.77;40.95;100345.47;5118161;28;822;-47
2020/12/25 09:57:12;;;;;;;;;;;;;;;19.92;40.76;100336.06;5118182;28;901;-49
2020/12/25 09:59:37;;;;;;;;;;;;;;;19.89;40.82;100331.19;5117890;28;755;-46
2020/12/25 10:02:03;;;;;;;;;;;;;;;20.07;40.50;100338.53;5117635;28;791;-49
2020/12/25 10:04:28;;;;;;;;;;;;;;;20.14;40.24;100330.63;5118075;28;746;-47
2020/12/25 10:06:57;;;;;;;;;;;;;;;20.21;39.97;100332.19;5099775;28;1901;-50
2020/12/25 10:09:22;;;;;;;;;;;;;;;20.21;39.92;100327.47;5097561;28;787;-52
2020/12/25 10:11:48;;;;;;;;;;;;;;;20.25;40.23;100320.19;5097568;28;538;-49
2020/12/25 10:14:13;;;;;;;;;;;;;;;20.32;40.08;100325.31;5097078;28;771;-52
2020/12/25 10:16:39;;;;;;;;;;;;;;;20.37;39.76;100318.84;5097441;28;779;-50
2020/12/25 10:19:04;;;;;;;;;;;;;;;20.40;39.92;100308.00;5097277;28;998;-48
2020/12/25 10:21:30;;;;;;;;;;;;;;;20.37;39.74;100311.41;5096713;28;961;-47
2020/12/25 10:23:55;;;;;;;;;;;;;;;20.34;39.75;100307.31;5097594;28;760;-45
2020/12/25 10:26:21;;;;;;;;;;;;;;;20.35;39.95;100302.59;5097209;28;1913;-52
2020/12/25 10:28:46;;;;;;;;;;;;;;;20.32;40.09;100305.97;5096943;28;783;-47
2020/12/25 10:31:12;;;;;;;;;;;;;;;20.45;39.67;100298.78;5097208;28;787;-49
2020/12/25 10:33:38;;;;;;;;;;;;;;;20.45;39.56;100299.59;5097324;28;826;-49
2020/12/25 10:36:03;;;;;;;;;;;;;;;20.40;39.98;100296.97;5096474;28;965;-51
2020/12/25 10:38:28;;;;;;;;;;;;;;;20.34;39.87;100296.25;5097098;28;855;-47
2020/12/25 10:40:54;;;;;;;;;;;;;;;20.37;40.14;100296.75;5096881;28;823;-54
2020/12/25 10:43:19;;;;;;;;;;;;;;;20.44;39.65;100299.91;5096732;28;763;-47
2020/12/25 10:45:46;;;;;;;;;;;;;;;20.49;39.58;100295.06;5116794;28;1971;-51
2020/12/25 10:48:11;;;;;;;;;;;;;;;20.55;39.69;100287.47;5117466;28;822;-48
2020/12/25 10:50:37;;;;;;;;;;;;;;;20.57;39.42;100292.72;5110301;28;968;-53
2020/12/25 10:53:02;;;;;;;;;;;;;;;20.55;39.44;100284.72;5097136;28;743;-48
2020/12/25 10:55:28;;;;;;;;;;;;;;;20.33;40.15;100291.88;5096588;28;735;-49
2020/12/25 10:57:53;;;;;;;;;;;;;;;20.45;39.90;100291.31;5096662;28;562;-48
2020/12/25 11:00:18;;;;;;;;;;;;;;;20.54;39.73;100282.28;5097018;28;767;-52
2020/12/25 11:02:44;;;;;;;;;;;;;;;20.68;39.30;100278.38;5096451;28;744;-48
2020/12/25 11:05:09;;;;;;;;;;;;;;;20.54;39.44;100274.00;5096182;28;1901;-49
2020/12/25 11:07:35;;;;;;;;;;;;;;;20.57;39.69;100270.63;5096717;28;744;-48
2020/12/25 11:10:00;;;;;;;;;;;;;;;20.51;39.87;100275.47;5096668;28;744;-47
2020/12/25 11:12:26;;;;;;;;;;;;;;;20.61;39.56;100285.44;5096489;28;835;-47
2020/12/25 11:14:51;;;;;;;;;;;;;;;20.62;39.35;100287.88;5100809;28;886;-51
2020/12/25 11:17:16;;;;;;;;;;;;;;;20.55;39.85;100272.88;5103562;28;787;-56
2020/12/25 11:19:42;;;;;;;;;;;;;;;20.74;39.48;100261.69;5103133;28;1429;-55
2020/12/25 11:22:13;;;;;;;;;;;;;;;20.61;39.73;100268.88;5102829;28;997;-57
2020/12/25 11:24:39;;;;;;;;;;;;;;;20.59;39.51;100273.88;5103140;28;1971;-50
2020/12/25 11:27:05;;;;;;;;;;;;;;;20.64;39.45;100269.03;5103160;28;811;-54
2020/12/25 11:29:30;;;;;;;;;;;;;;;20.79;39.13;100265.13;5103107;28;720;-49
2020/12/25 11:31:55;;;;;;;;;;;;;;;20.77;39.20;100277.63;5103056;28;812;-47
2020/12/25 11:34:21;;;;;;;;;;;;;;;20.72;39.49;100274.97;5103114;28;830;-49
2020/12/25 11:36:46;;;;;;;;;;;;;;;20.66;39.58;100272.31;5102940;28;941;-51
2020/12/25 11:39:12;;;;;;;;;;;;;;;20.71;39.50;100274.16;5103083;28;803;-49
2020/12/25 11:41:37;;;;;;;;;;;;;;;20.77;39.05;100278.44;5103025;28;826;-48
2020/12/25 11:44:02;;;;;;;;;;;;;;;20.93;39.15;100278.03;5108404;28;1114;-48
2020/12/25 11:46:28;;;;;;;;;;;;;;;20.82;39.27;100269.22;5109964;28;1913;-47
2020/12/25 11:48:53;;;;;;;;;;;;;;;20.80;39.41;100268.69;5103423;28;752;-49
2020/12/25 11:51:20;;;;;;;;;;;;;;;20.83;39.49;100271.66;5102469;28;1061;-49
2020/12/25 11:53:46;;;;;;;;;;;;;;;20.83;39.44;100277.19;5103026;28;760;-49
2020/12/25 11:56:12;;;;;;;;;;;;;;;20.52;39.85;100271.53;5103071;28;1035;-49
2020/12/25 11:58:37;;;;;;;;;;;;;;;20.70;39.61;100269.75;5102341;28;1176;-48
2020/12/25 12:01:02;;;;;;;;;;;;;;;20.81;39.50;100279.44;5103030;28;791;-47
2020/12/25 12:03:28;;;;;;;;;;;;;;;20.61;39.88;100269.69;5103243;28;779;-50
2020/12/25 12:05:53;;;;;;;;;;;;;;;20.79;39.37;100278.94;5102623;28;1890;-50
2020/12/25 12:08:19;;;;;;;;;;;;;;;20.76;39.74;100273.22;5102955;28;795;-50
2020/12/25 12:10:44;;;;;;;;;;;;;;;20.78;39.40;100269.00;5102856;28;791;-47
2020/12/25 12:13:10;;;;;;;;;;;;;;;20.73;39.80;100260.03;5102436;28;1031;-48
2020/12/25 12:15:38;;;;;;;;;;;;;;;20.69;39.78;100254.31;5102875;28;798;-53
2020/12/25 12:18:04;;;;;;;;;;;;;;;20.77;39.49;100255.53;5102871;28;747;-51
2020/12/25 12:20:29;;;;;;;;;;;;;;;20.80;39.51;100249.34;5101980;28;1197;-50
2020/12/25 12:22:55;;;;;;;;;;;;;;;20.88;39.50;100250.56;5102704;28;751;-49
2020/12/25 12:25:20;;;;;;;;;;;;;;;20.72;39.55;100250.94;5101527;28;1983;-50
2020/12/25 12:27:46;;;;;;;;;;;;;;;20.78;39.78;100254.41;5099284;28;782;-46
2020/12/25 12:30:11;;;;;;;;;;;;;;;20.80;39.75;100258.47;5099519;28;756;-49
2020/12/25 12:32:36;;;;;;;;;;;;;;;20.84;39.44;100255.88;5099382;28;830;-52
2020/12/25 12:35:02;;;;;;;;;;;;;;;20.80;39.60;100246.59;5099120;28;941;-50
2020/12/25 12:37:27;;;;;;;;;;;;;;;20.79;39.77;100251.31;5099361;28;855;-50
2020/12/25 12:39:53;;;;;;;;;;;;;;;20.85;39.50;100260.28;5099219;28;751;-56
2020/12/25 12:42:18;;;;;;;;;;;;;;;20.83;39.41;100268.91;5099014;28;748;-51
2020/12/25 12:44:43;;;;;;;;;;;;;;;20.93;39.52;100269.75;5110482;28;1985;-58
2020/12/25 12:47:09;;;;;;;;;;;;;;;20.78;39.57;100269.00;5119522;28;879;-54
2020/12/25 12:49:34;;;;;;;;;;;;;;;20.84;39.46;100269.69;5119634;28;827;-56